Дата Пункты Температура Давл., мм. Влажн., % Ветер Погодные явления
Воздуха Воды Направл. Скорость
16.04.18 09:00 Одесса 10.0 11.0 763 87 Ю 2 21 ЧАС
16.04.18 06:00 Одесса 11.0 12.0 763 84 Ю 3 18 ЧАСОВ
16.04.18 03:00 Одесса 12.0 12.0 764 82 Ю 4 15 ЧАСОВ
16.04.18 12:00 Одесса 12.0 12.0 765 78 Ю 4 12 ЧАСОВ
16.04.18 09:00 Одесса 12.0 12.0 765 81 Ю-З 1 09 ЧАСОВ
16.04.18 06:00 Одесса 10.0 13.0 764 94 Ю-З 2 06 ЧАСОВ
16.04.18 03:00 Одесса 11.0 13.0 765 85 Ю-З 1 03 ЧАСА
15.04.18 09:00 Одесса 12.0 13.0 766 84 Ю-З 2 21 ЧАС
15.04.18 06:00 Одесса 14.0 13.0 765 72 Ю-З 2 18 ЧАСОВ
15.04.18 03:00 Одесса 13.0 13.0 766 80 Ю 4 15 ЧАСОВ
15.04.18 12:00 Одесса 11.0 13.0 767 99 Ю 4 12 ЧАСОВ
15.04.18 09:00 Одесса 15.0 13.0 766 84 Ю 2 09 ЧАСОВ
15.04.18 06:00 Одесса 12.0 12.0 765 90 С 0 06 ЧАСОВ
15.04.18 03:00 Одесса 13.0 12.0 765 87 С 0 03 ЧАСА
14.04.18 09:00 Одесса 16.0 12.0 765 59 З 1 21 ЧАС
14.04.18 06:00 Одесса 19.0 13.0 764 51 Ю-З 1 18 ЧАСОВ
14.04.18 03:00 Одесса 17.0 13.0 764 65 Ю 3 15 ЧАСОВ
14.04.18 12:00 Одесса 17.0 12.0 764 72 Ю-В 1 12 ЧАСОВ
14.04.18 09:00 Одесса 16.0 12.0 763 73 Ю-В 1 09 ЧАСОВ
14.04.18 06:00 Одесса 11.0 11.0 763 86 С 0 06 ЧАСОВ
Количество строк
1 2 3 4 5 6 7 8 9 10
Page 4 of 354